Time;durP1;ratioP1;P1;durP2;ratioP2;P2;SDS_P1;SDS_P2;PMS_P1;PMS_P2;Temp;Humidity;BMP_temperature;BMP_pressure;BME280_temperature;BME280_humidity;BME280_pressure;Samples;Min_cycle;Max_cycle;Signal;HPM_P1;HPM_P2
2022/01/22 00:00:31;;;;;;;22.77;2.78;;;6.50;99.90;;;;;;5050841;28;20049;-70
2022/01/22 00:02:57;;;;;;;25.42;4.45;;;6.50;99.90;;;;;;5049514;28;20041;-68
2022/01/22 00:05:23;;;;;;;13.32;2.70;;;6.50;99.90;;;;;;5050389;28;20056;-69
2022/01/22 00:07:49;;;;;;;9.05;2.03;;;6.50;99.90;;;;;;5047517;28;20396;-70
2022/01/22 00:10:18;;;;;;;13.00;2.58;;;6.50;99.90;;;;;;5049665;28;20041;-70
2022/01/22 00:15:29;;;;;;;12.77;2.38;;;6.50;99.90;;;;;;5049738;28;20077;-71
2022/01/22 00:17:55;;;;;;;12.23;2.13;;;6.50;99.90;;;;;;5050631;28;20048;-70
2022/01/22 00:20:23;;;;;;;12.52;1.55;;;6.50;99.90;;;;;;5050104;28;20111;-69
2022/01/22 00:22:50;;;;;;;10.80;1.60;;;6.50;99.90;;;;;;5049858;28;20107;-69
2022/01/22 00:25:16;;;;;;;14.30;1.92;;;6.60;99.90;;;;;;5048217;28;20128;-69
2022/01/22 00:27:44;;;;;;;12.55;2.28;;;6.50;99.90;;;;;;5047466;28;20084;-69
2022/01/22 00:30:14;;;;;;;15.85;2.28;;;6.50;99.90;;;;;;5048533;28;20099;-70
2022/01/22 00:32:40;;;;;;;18.67;2.85;;;6.50;99.90;;;;;;5049368;28;20047;-70
2022/01/22 00:35:06;;;;;;;16.58;2.15;;;6.50;99.90;;;;;;5049744;28;20565;-70
2022/01/22 00:37:34;;;;;;;8.13;1.73;;;6.60;99.90;;;;;;5049156;28;20056;-69
2022/01/22 00:39:59;;;;;;;14.05;2.53;;;6.50;99.90;;;;;;5050036;28;20123;-70
2022/01/22 00:42:25;;;;;;;10.80;3.40;;;6.50;99.90;;;;;;5049387;28;20156;-70
2022/01/22 00:44:51;;;;;;;14.32;2.08;;;6.50;99.90;;;;;;5049566;28;20049;-70
2022/01/22 00:47:20;;;;;;;9.10;1.77;;;6.50;99.90;;;;;;5050371;28;20423;-69
2022/01/22 00:49:46;;;;;;;10.73;1.95;;;6.60;99.90;;;;;;5050768;28;20084;-70
2022/01/22 00:52:12;;;;;;;12.82;2.00;;;6.60;99.90;;;;;;5049882;28;20199;-70
2022/01/22 00:54:38;;;;;;;7.72;3.15;;;6.50;99.90;;;;;;5050084;28;20143;-70
2022/01/22 00:57:04;;;;;;;9.00;2.28;;;6.50;99.90;;;;;;5049182;28;20049;-70
2022/01/22 00:59:29;;;;;;;11.75;2.33;;;6.50;99.90;;;;;;5050078;28;20049;-70
2022/01/22 01:01:55;;;;;;;10.18;1.65;;;6.50;99.90;;;;;;5050344;28;20053;-69
2022/01/22 01:04:21;;;;;;;9.90;1.65;;;6.50;99.90;;;;;;5049178;28;20049;-70
2022/01/22 01:06:47;;;;;;;5.35;1.58;;;6.50;99.90;;;;;;5050216;28;20122;-70
2022/01/22 01:09:13;;;;;;;5.25;1.30;;;6.50;99.90;;;;;;5050988;28;20555;-69
2022/01/22 01:11:45;;;;;;;9.50;1.30;;;6.50;99.90;;;;;;5049318;28;20049;-70
2022/01/22 01:14:17;;;;;;;9.88;1.67;;;6.50;99.90;;;;;;5049697;28;20049;-70
2022/01/22 01:33:18;;;;;;;13.25;1.60;;;6.50;99.90;;;;;;5050789;28;20080;-70
2022/01/22 01:35:44;;;;;;;15.50;1.77;;;6.50;99.90;;;;;;5049755;28;20049;-69
2022/01/22 01:38:09;;;;;;;15.25;2.47;;;6.50;99.90;;;;;;5048382;28;20545;-70
2022/01/22 01:40:42;;;;;;;11.40;2.85;;;6.40;99.90;;;;;;5049447;28;20056;-70
2022/01/22 01:45:34;;;;;;;15.95;2.45;;;6.50;99.90;;;;;;5050115;28;20099;-69
2022/01/22 01:48:06;;;;;;;16.42;2.05;;;6.40;99.90;;;;;;5049402;28;20072;-70
2022/01/22 01:50:34;;;;;;;4.50;1.35;;;6.40;99.90;;;;;;5049760;28;20442;-70
2022/01/22 01:53:48;;;;;;;3.75;1.02;;;6.40;99.90;;;;;;5049979;28;20130;-70
2022/01/22 01:58:30;;;;;;;5.57;1.25;;;6.40;99.90;;;;;;5049032;28;20063;-70
2022/01/22 02:00:57;;;;;;;8.02;2.13;;;6.40;99.90;;;;;;5048071;28;20049;-70
2022/01/22 02:03:23;;;;;;;9.95;1.60;;;6.40;99.90;;;;;;5048872;28;20099;-70
2022/01/22 02:05:50;;;;;;;18.33;2.55;;;6.40;99.90;;;;;;5047364;28;20055;-70
2022/01/22 02:08:18;;;;;;;9.52;2.00;;;6.40;99.90;;;;;;5050469;28;20052;-70
2022/01/22 02:10:52;;;;;;;4.68;1.35;;;6.40;99.90;;;;;;5049367;28;20139;-70
2022/01/22 02:13:42;;;;;;;10.30;1.48;;;6.30;99.90;;;;;;5048412;28;20045;-70
2022/01/22 02:24:43;;;;;;;10.35;1.88;;;6.30;99.90;;;;;;5049411;28;20435;-70
2022/01/22 02:27:08;;;;;;;4.93;1.83;;;6.30;99.90;;;;;;5048384;28;20067;-70
2022/01/22 02:29:34;;;;;;;4.45;0.90;;;6.30;99.90;;;;;;5050474;28;20060;-70
2022/01/22 02:32:24;;;;;;;6.85;1.25;;;6.30;99.90;;;;;;5049198;28;20064;-70
2022/01/22 02:34:52;;;;;;;9.30;1.90;;;6.30;99.90;;;;;;5048471;28;20049;-69
2022/01/22 02:37:20;;;;;;;5.32;1.23;;;6.30;99.90;;;;;;5048626;28;20041;-68
2022/01/22 02:40:00;;;;;;;9.00;1.73;;;6.40;99.90;;;;;;5049191;28;20372;-69
2022/01/22 02:42:29;;;;;;;8.35;1.48;;;6.40;99.90;;;;;;5049525;28;20487;-69
2022/01/22 02:44:55;;;;;;;5.28;0.75;;;6.40;99.90;;;;;;5048926;28;20045;-69
2022/01/22 02:47:21;;;;;;;6.13;1.33;;;6.30;99.90;;;;;;5048462;28;20052;-69
2022/01/22 02:49:48;;;;;;;9.48;1.25;;;6.40;99.90;;;;;;5048116;28;20049;-69
2022/01/22 02:52:17;;;;;;;8.02;0.60;;;6.30;99.90;;;;;;5048597;28;20041;-69
2022/01/22 02:54:43;;;;;;;13.35;1.38;;;6.30;99.90;;;;;;5050452;28;20679;-69
2022/01/22 02:57:09;;;;;;;3.92;0.98;;;6.20;99.90;;;;;;5051394;28;20170;-69
2022/01/22 02:59:35;;;;;;;6.65;0.52;;;6.20;99.90;;;;;;5047643;28;20503;-69
2022/01/22 03:02:03;;;;;;;8.05;0.68;;;6.20;99.90;;;;;;5051781;28;20049;-69
2022/01/22 03:04:29;;;;;;;13.40;1.08;;;6.20;99.90;;;;;;5051803;28;20145;-69
2022/01/22 03:06:55;;;;;;;67.05;6.63;;;6.20;99.90;;;;;;5051492;28;20139;-69
2022/01/22 03:09:27;;;;;;;133.15;11.52;;;6.20;99.90;;;;;;5051070;28;20055;-69
2022/01/22 03:15:11;;;;;;;5.35;1.42;;;6.20;99.90;;;;;;5085670;28;19963;-69
2022/01/22 03:20:06;;;;;;;2.55;0.73;;;6.20;99.90;;;;;;5051991;28;20098;-69
2022/01/22 03:23:04;;;;;;;5.90;1.13;;;6.20;99.90;;;;;;5051702;28;20065;-69
2022/01/22 03:28:02;;;;;;;8.70;1.65;;;6.20;99.90;;;;;;5051367;28;20049;-69
2022/01/22 03:30:28;;;;;;;6.22;1.00;;;6.30;99.90;;;;;;5050946;28;20055;-69
2022/01/22 03:32:55;;;;;;;3.30;1.33;;;6.20;99.90;;;;;;5051698;28;20415;-69
2022/01/22 03:37:53;;;;;;;7.35;0.85;;;6.30;99.90;;;;;;5050911;28;20195;-69
2022/01/22 03:40:24;;;;;;;7.68;1.73;;;6.30;99.90;;;;;;5051579;28;20601;-69
2022/01/22 03:42:51;;;;;;;5.10;1.17;;;6.30;99.90;;;;;;5051715;28;20388;-69
2022/01/22 03:45:17;;;;;;;5.50;1.10;;;6.30;99.90;;;;;;5050359;28;20512;-70
2022/01/22 03:47:44;;;;;;;5.47;1.15;;;6.30;99.90;;;;;;5051412;28;20045;-69
2022/01/22 03:50:11;;;;;;;6.82;1.13;;;6.30;99.90;;;;;;5050991;28;20049;-69
2022/01/22 03:52:37;;;;;;;8.50;0.88;;;6.30;99.90;;;;;;5052241;28;20095;-69
2022/01/22 03:55:05;;;;;;;5.78;1.08;;;6.20;99.90;;;;;;5050959;28;20434;-69
2022/01/22 03:57:31;;;;;;;4.32;1.15;;;6.30;99.90;;;;;;5051208;28;20056;-69
2022/01/22 03:59:56;;;;;;;5.20;1.27;;;6.30;99.90;;;;;;5051913;28;20061;-69
2022/01/22 04:05:07;;;;;;;3.67;0.60;;;6.30;99.90;;;;;;5050021;28;20099;-69
2022/01/22 04:10:02;;;;;;;3.40;0.52;;;6.30;99.90;;;;;;5050856;28;20057;-69
2022/01/22 04:12:42;;;;;;;6.35;1.08;;;6.20;99.90;;;;;;5083772;28;20052;-69
2022/01/22 04:15:10;;;;;;;6.93;0.50;;;6.30;99.90;;;;;;5050741;28;20049;-69
2022/01/22 04:25:45;;;;;;;4.32;0.50;;;6.20;99.90;;;;;;5050795;28;20087;-69
2022/01/22 04:28:12;;;;;;;5.47;1.15;;;6.30;99.90;;;;;;5049597;28;20044;-69
2022/01/22 04:30:39;;;;;;;3.28;0.68;;;6.20;99.90;;;;;;5050693;28;20053;-69
2022/01/22 04:33:05;;;;;;;2.88;0.82;;;6.30;99.90;;;;;;5051789;28;20059;-70
2022/01/22 04:35:31;;;;;;;5.60;0.98;;;6.20;99.90;;;;;;5049793;28;20399;-69
2022/01/22 04:37:57;;;;;;;7.57;1.23;;;6.20;99.90;;;;;;5050414;28;20052;-70
2022/01/22 04:40:23;;;;;;;7.18;1.20;;;6.20;99.90;;;;;;5050117;28;20041;-69
2022/01/22 04:42:49;;;;;;;7.65;0.98;;;6.20;99.90;;;;;;5049684;28;20059;-69
2022/01/22 04:45:25;;;;;;;13.13;2.00;;;6.20;99.90;;;;;;5050060;28;20049;-70
2022/01/22 04:48:12;;;;;;;5.07;1.35;;;6.20;99.90;;;;;;5049660;28;20102;-69
2022/01/22 04:55:48;;;;;;;10.93;1.27;;;6.20;99.90;;;;;;5049453;28;20146;-69
2022/01/22 04:58:14;;;;;;;7.72;1.20;;;6.20;99.90;;;;;;5049764;28;20044;-70
2022/01/22 05:00:43;;;;;;;10.45;1.90;;;6.20;99.90;;;;;;5050033;28;20449;-69
2022/01/22 05:03:09;;;;;;;3.92;1.38;;;6.20;99.90;;;;;;5048994;28;20416;-70
2022/01/22 05:05:35;;;;;;;9.50;1.15;;;6.20;99.90;;;;;;5050216;28;20091;-69
2022/01/22 05:08:00;;;;;;;9.48;1.77;;;6.20;99.90;;;;;;5049769;28;20072;-69
2022/01/22 05:10:26;;;;;;;7.70;2.15;;;6.20;99.90;;;;;;5049386;28;20045;-69
2022/01/22 05:12:53;;;;;;;8.35;1.02;;;6.20;99.90;;;;;;5049827;28;20045;-69
2022/01/22 05:15:20;;;;;;;10.35;1.20;;;6.20;99.90;;;;;;5049818;28;20080;-69
2022/01/22 05:17:47;;;;;;;7.65;1.23;;;6.20;99.90;;;;;;5040335;28;20049;-70
2022/01/22 05:20:28;;;;;;;4.00;1.23;;;6.10;99.90;;;;;;5049453;28;20045;-69
2022/01/22 05:23:08;;;;;;;9.60;1.08;;;6.10;99.90;;;;;;5048187;28;20122;-70
2022/01/22 05:25:39;;;;;;;4.53;0.60;;;6.10;99.90;;;;;;5049599;28;20045;-69
2022/01/22 05:30:57;;;;;;;10.00;1.00;;;6.10;99.90;;;;;;5048145;28;20307;-69
2022/01/22 05:36:56;;;;;;;10.85;1.58;;;6.20;99.90;;;;;;5049487;28;20464;-69
2022/01/22 05:39:10;;;;;;;12.18;1.20;;;6.20;99.90;;;;;;5048416;28;20128;-70
2022/01/22 05:41:38;;;;;;;7.30;1.63;;;6.10;99.90;;;;;;5049797;28;20392;-70
2022/01/22 05:44:04;;;;;;;8.40;1.85;;;6.10;99.90;;;;;;5048786;28;20083;-70
2022/01/22 05:46:29;;;;;;;4.32;1.15;;;6.20;99.90;;;;;;5049629;28;20496;-69
2022/01/22 05:48:55;;;;;;;4.70;0.85;;;6.10;99.90;;;;;;5049701;28;20483;-69
2022/01/22 05:51:21;;;;;;;4.72;1.23;;;6.10;99.90;;;;;;5048356;28;20055;-70
2022/01/22 06:01:40;;;;;;;2.70;0.80;;;6.20;99.90;;;;;;5062189;28;20057;-69
2022/01/22 06:04:06;;;;;;;6.78;0.77;;;6.20;99.90;;;;;;5048859;28;20480;-69
2022/01/22 06:06:31;;;;;;;2.47;1.10;;;6.20;99.90;;;;;;5048685;28;20045;-69
2022/01/22 06:08:59;;;;;;;5.38;1.38;;;6.20;99.90;;;;;;5049449;28;20132;-69
2022/01/22 06:11:27;;;;;;;5.43;1.40;;;6.20;99.90;;;;;;5048725;28;20106;-69
2022/01/22 06:13:53;;;;;;;4.68;1.10;;;6.20;99.90;;;;;;5048576;28;20064;-69
2022/01/22 06:16:21;;;;;;;3.95;1.00;;;6.20;99.90;;;;;;5048892;28;20052;-70
2022/01/22 06:18:47;;;;;;;3.97;0.70;;;6.20;99.90;;;;;;5049154;28;20175;-70
2022/01/22 06:21:13;;;;;;;38.72;2.92;;;6.20;99.90;;;;;;5048387;28;20040;-69
2022/01/22 06:23:40;;;;;;;4.93;1.55;;;6.20;99.90;;;;;;5048868;28;20076;-69
2022/01/22 06:26:07;;;;;;;1.13;0.63;;;6.20;99.90;;;;;;5048015;28;20127;-70
2022/01/22 06:28:34;;;;;;;11.63;2.03;;;6.20;99.90;;;;;;5050161;28;20053;-69
2022/01/22 06:31:01;;;;;;;7.35;0.88;;;6.20;99.90;;;;;;5053201;28;20061;-70
2022/01/22 06:33:26;;;;;;;6.10;0.93;;;6.20;99.90;;;;;;5052290;28;20052;-70
2022/01/22 06:35:52;;;;;;;4.43;0.75;;;6.10;99.90;;;;;;5052177;28;20044;-70
2022/01/22 06:38:18;;;;;;;6.85;0.82;;;6.10;99.90;;;;;;5052307;28;20473;-70
2022/01/22 06:43:30;;;;;;;6.43;1.05;;;6.10;99.90;;;;;;5053053;28;20049;-70
2022/01/22 06:45:56;;;;;;;79.38;9.23;;;6.20;99.90;;;;;;5052653;28;20510;-69
2022/01/22 06:48:22;;;;;;;8.80;1.55;;;6.20;99.90;;;;;;5051641;28;20495;-70
2022/01/22 06:50:48;;;;;;;240.45;20.52;;;6.20;99.90;;;;;;5052567;28;20049;-69
2022/01/22 06:53:14;;;;;;;1164.30;95.00;;;6.10;99.90;;;;;;5052424;28;20060;-69
2022/01/22 06:56:02;;;;;;;55.25;6.22;;;6.10;99.90;;;;;;5085587;28;20048;-69
2022/01/22 06:58:26;;;;;;;8.32;1.20;;;6.10;99.90;;;;;;5051810;28;20056;-69
2022/01/22 07:00:52;;;;;;;5.43;1.35;;;6.10;99.90;;;;;;5052389;28;20380;-69
2022/01/22 07:03:18;;;;;;;43.45;4.30;;;6.10;99.90;;;;;;5051619;28;20048;-69
2022/01/22 07:05:44;;;;;;;3.35;0.65;;;6.10;99.90;;;;;;5052176;28;20052;-69
2022/01/22 07:08:09;;;;;;;0.47;0.30;;;6.10;99.90;;;;;;5052104;28;20064;-69
2022/01/22 07:10:35;;;;;;;5.82;1.23;;;6.00;99.90;;;;;;5050877;28;20053;-69
2022/01/22 07:13:00;;;;;;;1.52;0.60;;;6.00;99.90;;;;;;5050883;28;20407;-70
2022/01/22 07:15:26;;;;;;;7.38;0.52;;;6.00;99.90;;;;;;5051428;28;20094;-69
2022/01/22 07:17:52;;;;;;;3.33;0.68;;;6.00;99.90;;;;;;5053069;28;20601;-69
2022/01/22 07:20:25;;;;;;;3.90;1.02;;;6.00;99.90;;;;;;5051667;28;20049;-69
2022/01/22 07:23:13;;;;;;;2.13;0.57;;;6.00;99.90;;;;;;5049801;28;20083;-69
2022/01/22 07:25:39;;;;;;;4.38;0.90;;;6.00;99.90;;;;;;5045637;28;20053;-68
2022/01/22 07:28:05;;;;;;;2.97;1.00;;;6.00;99.90;;;;;;5051513;28;20044;-69
2022/01/22 07:30:31;;;;;;;3.70;0.90;;;6.00;99.90;;;;;;5051175;28;20073;-69
2022/01/22 07:32:57;;;;;;;8.15;1.52;;;6.00;99.90;;;;;;5051614;28;20539;-70
2022/01/22 07:35:22;;;;;;;1.05;0.73;;;5.90;99.90;;;;;;5049553;28;20040;-70
2022/01/22 07:37:48;;;;;;;1.73;0.85;;;5.90;99.90;;;;;;5050992;28;20040;-69
2022/01/22 07:40:14;;;;;;;1.65;0.80;;;6.00;99.90;;;;;;5050427;28;20135;-70
2022/01/22 07:42:40;;;;;;;1.98;0.98;;;5.90;99.90;;;;;;5051425;28;20059;-69
2022/01/22 07:45:08;;;;;;;2.00;0.60;;;5.90;99.90;;;;;;5050409;28;20132;-70
2022/01/22 07:47:34;;;;;;;1.65;0.50;;;5.90;99.90;;;;;;5046213;28;20085;-70
2022/01/22 07:50:00;;;;;;;5.40;0.93;;;5.90;99.90;;;;;;5050991;28;20053;-70
2022/01/22 07:52:26;;;;;;;1.30;0.35;;;5.90;99.90;;;;;;5051063;28;20399;-69
2022/01/22 07:54:52;;;;;;;0.55;0.40;;;5.90;99.90;;;;;;5052642;28;20134;-70
2022/01/22 07:57:18;;;;;;;3.72;0.57;;;5.90;99.90;;;;;;5051109;28;20484;-69
2022/01/22 07:59:43;;;;;;;6.38;0.73;;;5.90;99.90;;;;;;5050618;28;20044;-69
2022/01/22 08:02:09;;;;;;;7.63;0.55;;;5.90;99.90;;;;;;5050895;28;20451;-70
2022/01/22 08:04:34;;;;;;;4.07;0.75;;;5.90;99.90;;;;;;5050388;28;20056;-69
2022/01/22 08:07:03;;;;;;;4.35;0.98;;;5.90;99.90;;;;;;5051054;28;20148;-69
2022/01/22 08:09:29;;;;;;;4.70;0.60;;;5.90;99.90;;;;;;5051078;28;20533;-70
2022/01/22 08:11:54;;;;;;;6.45;0.95;;;5.90;99.90;;;;;;5050637;28;20499;-69
2022/01/22 08:14:20;;;;;;;7.15;1.23;;;5.90;99.90;;;;;;5050429;28;20049;-69
2022/01/22 08:16:49;;;;;;;10.27;1.27;;;5.90;99.90;;;;;;5051130;28;20047;-70
2022/01/22 08:19:16;;;;;;;9.48;1.80;;;6.20;99.90;;;;;;5051427;28;20076;-70
2022/01/22 08:21:43;;;;;;;16.33;1.73;;;5.90;99.90;;;;;;5050596;28;20053;-69
2022/01/22 08:24:10;;;;;;;8.70;1.20;;;5.90;99.90;;;;;;5051980;28;20415;-69
2022/01/22 08:26:39;;;;;;;9.55;1.40;;;6.00;99.90;;;;;;5051337;28;20062;-69
2022/01/22 08:29:05;;;;;;;5.65;1.50;;;6.00;99.90;;;;;;5050311;28;20060;-69
2022/01/22 08:36:44;;;;;;;14.07;0.90;;;6.00;99.90;;;;;;5050479;28;20049;-69
2022/01/22 08:39:11;;;;;;;7.15;1.50;;;6.00;99.90;;;;;;5050227;28;20056;-68
2022/01/22 08:41:37;;;;;;;4.53;1.33;;;6.00;99.90;;;;;;5050046;28;20486;-69
2022/01/22 08:44:04;;;;;;;4.30;1.33;;;6.10;99.90;;;;;;5050070;28;20044;-69
2022/01/22 08:46:31;;;;;;;8.48;1.65;;;6.10;99.90;;;;;;5049400;28;20456;-70
2022/01/22 08:48:57;;;;;;;15.32;1.88;;;6.10;99.90;;;;;;5047532;28;20041;-69
2022/01/22 08:51:22;;;;;;;5.43;0.73;;;7.10;99.90;;;;;;5049552;28;20125;-69
2022/01/22 08:53:50;;;;;;;7.70;2.13;;;6.10;99.90;;;;;;5048941;28;20044;-69
2022/01/22 08:56:16;;;;;;;8.30;1.95;;;6.10;99.90;;;;;;5048916;28;20041;-70
2022/01/22 08:58:42;;;;;;;17.05;2.17;;;6.10;99.90;;;;;;5050262;28;20076;-69
2022/01/22 09:01:08;;;;;;;11.55;1.55;;;6.10;99.90;;;;;;5049295;28;20044;-69
2022/01/22 09:03:34;;;;;;;9.95;1.75;;;6.10;99.90;;;;;;5051105;28;20087;-69
2022/01/22 09:06:01;;;;;;;7.32;1.65;;;6.20;99.90;;;;;;5049899;28;20068;-67
2022/01/22 09:08:27;;;;;;;16.25;2.40;;;6.20;99.90;;;;;;5050429;28;20451;-67
2022/01/22 09:10:54;;;;;;;12.30;2.10;;;6.10;99.90;;;;;;5049905;28;20072;-68
2022/01/22 09:13:21;;;;;;;9.52;1.50;;;6.10;99.90;;;;;;5049910;28;20071;-69
2022/01/22 09:15:47;;;;;;;14.38;2.47;;;6.10;99.90;;;;;;5049012;28;20098;-69
2022/01/22 09:18:13;;;;;;;9.75;1.77;;;6.10;99.90;;;;;;5049360;28;20048;-69
2022/01/22 09:23:06;;;;;;;7.03;1.95;;;6.20;99.90;;;;;;5047866;28;20411;-69
2022/01/22 09:25:33;;;;;;;6.50;1.73;;;6.20;99.90;;;;;;5049601;28;20086;-69
2022/01/22 09:27:58;;;;;;;7.57;2.25;;;6.20;99.90;;;;;;5049993;28;20044;-69
2022/01/22 09:30:24;;;;;;;7.53;2.05;;;6.20;99.90;;;;;;5047959;28;20051;-69
2022/01/22 09:32:50;;;;;;;9.65;2.25;;;6.30;99.90;;;;;;5049514;28;20045;-68
2022/01/22 09:35:16;;;;;;;12.52;2.75;;;6.30;99.90;;;;;;5049512;28;20072;-68
2022/01/22 09:37:43;;;;;;;5.65;2.20;;;6.30;99.90;;;;;;5048933;28;20645;-68
2022/01/22 09:40:09;;;;;;;13.38;2.38;;;6.40;99.90;;;;;;5048611;28;20399;-67
2022/01/22 09:42:35;;;;;;;8.40;2.15;;;6.40;99.90;;;;;;5049558;28;20060;-67
2022/01/22 09:45:02;;;;;;;18.15;3.13;;;6.40;99.90;;;;;;5048215;28;20049;-71
2022/01/22 09:47:29;;;;;;;7.05;2.47;;;6.40;99.90;;;;;;5049342;28;20049;-74
2022/01/22 09:49:55;;;;;;;20.35;3.28;;;6.40;99.90;;;;;;5049432;28;20510;-72
2022/01/22 09:52:22;;;;;;;12.52;2.80;;;6.40;99.90;;;;;;5048330;28;20457;-72
2022/01/22 09:54:48;;;;;;;12.07;2.72;;;6.40;99.90;;;;;;5049321;28;20059;-77
2022/01/22 09:57:14;;;;;;;6.18;1.80;;;6.50;99.90;;;;;;5048333;28;20088;-78
2022/01/22 09:59:40;;;;;;;10.18;2.70;;;6.50;99.90;;;;;;5049475;28;20439;-77
2022/01/22 10:02:12;;;;;;;12.68;2.50;;;6.50;99.90;;;;;;5049039;28;20087;-78
2022/01/22 10:04:39;;;;;;;10.75;2.50;;;6.40;99.90;;;;;;5051885;28;20106;-78
2022/01/22 10:07:05;;;;;;;9.43;1.95;;;6.50;99.90;;;;;;5053057;28;20048;-77
2022/01/22 10:09:46;;;;;;;7.07;2.17;;;6.50;99.90;;;;;;5053267;28;20399;-75
2022/01/22 10:12:16;;;;;;;15.80;1.92;;;6.50;99.90;;;;;;5052260;28;20048;-72
2022/01/22 10:15:05;;;;;;;9.95;2.30;;;6.50;99.90;;;;;;5053017;28;20045;-73
2022/01/22 10:17:55;;;;;;;9.60;2.03;;;6.50;99.90;;;;;;5042653;28;20053;-74
2022/01/22 10:20:21;;;;;;;6.20;2.08;;;6.60;99.90;;;;;;5051401;28;20419;-73
2022/01/22 10:22:52;;;;;;;8.05;2.00;;;6.50;99.90;;;;;;5052996;28;20068;-73
2022/01/22 10:25:45;;;;;;;10.70;2.42;;;6.50;99.90;;;;;;5051501;28;20049;-73
2022/01/22 10:28:17;;;;;;;14.65;3.25;;;6.50;99.90;;;;;;5085622;28;20049;-72
2022/01/22 10:30:44;;;;;;;10.20;2.00;;;6.50;99.90;;;;;;5053838;28;20045;-72
2022/01/22 10:33:28;;;;;;;10.13;2.35;;;6.50;99.90;;;;;;5051010;28;20049;-73
2022/01/22 10:36:07;;;;;;;11.52;2.38;;;6.50;99.90;;;;;;5051935;28;20659;-74
2022/01/22 10:38:40;;;;;;;7.20;1.77;;;6.50;99.90;;;;;;5052073;28;20053;-74
2022/01/22 10:41:07;;;;;;;6.40;1.95;;;6.60;99.90;;;;;;5051160;28;20053;-73
2022/01/22 10:43:34;;;;;;;8.98;1.85;;;6.60;99.90;;;;;;5052264;28;20056;-73
2022/01/22 10:46:08;;;;;;;8.25;2.35;;;6.60;99.90;;;;;;5051859;28;20113;-74
2022/01/22 10:48:35;;;;;;;5.00;1.40;;;6.60;99.90;;;;;;5051288;28;20049;-73
2022/01/22 10:51:06;;;;;;;7.43;1.60;;;6.50;99.90;;;;;;5051628;28;20088;-73
2022/01/22 10:53:42;;;;;;;7.72;1.73;;;6.60;99.90;;;;;;5050432;28;20045;-72
2022/01/22 10:56:10;;;;;;;11.05;1.80;;;6.60;99.90;;;;;;5035254;28;20041;-73
2022/01/22 10:58:49;;;;;;;12.65;1.65;;;6.60;99.90;;;;;;5041173;28;20052;-73
2022/01/22 11:01:15;;;;;;;4.35;1.58;;;6.60;99.90;;;;;;5050432;28;20506;-73
2022/01/22 11:03:40;;;;;;;13.23;2.25;;;6.60;99.90;;;;;;5042405;28;20054;-72
2022/01/22 11:06:26;;;;;;;12.02;2.50;;;6.60;99.90;;;;;;5040340;28;20049;-76
2022/01/22 11:08:53;;;;;;;12.45;1.90;;;6.60;99.90;;;;;;5064543;28;20083;-75
2022/01/22 11:11:19;;;;;;;10.25;1.63;;;6.60;99.90;;;;;;5031357;28;20499;-75
2022/01/22 11:13:45;;;;;;;7.03;1.73;;;6.70;99.90;;;;;;5033459;28;20140;-74
2022/01/22 11:16:11;;;;;;;9.77;2.40;;;6.60;99.90;;;;;;5049281;28;20090;-75
2022/01/22 11:18:40;;;;;;;10.05;2.45;;;6.60;99.90;;;;;;5072898;28;20055;-76
2022/01/22 11:21:06;;;;;;;12.48;4.35;;;6.70;99.90;;;;;;5080577;28;20488;-74
2022/01/22 11:23:33;;;;;;;17.35;4.00;;;6.60;99.90;;;;;;5050320;28;20056;-73
2022/01/22 11:26:00;;;;;;;12.57;3.55;;;6.70;99.90;;;;;;5051703;28;20053;-76
2022/01/22 11:28:26;;;;;;;12.98;3.35;;;6.70;99.90;;;;;;5049558;28;20041;-75
2022/01/22 11:30:53;;;;;;;9.23;3.13;;;6.70;99.90;;;;;;5051400;28;20179;-75
2022/01/22 11:33:21;;;;;;;8.88;3.22;;;6.70;99.90;;;;;;5049874;28;20072;-76
2022/01/22 11:35:59;;;;;;;5.70;2.70;;;6.70;99.90;;;;;;5080836;28;20053;-77
2022/01/22 11:38:34;;;;;;;18.42;3.75;;;6.70;99.90;;;;;;5050058;28;20057;-78
2022/01/22 11:41:14;;;;;;;11.95;3.15;;;6.80;99.90;;;;;;5050886;28;20479;-77
2022/01/22 11:46:31;;;;;;;12.73;3.80;;;6.70;99.90;;;;;;5051297;28;20483;-77
2022/01/22 11:49:26;;;;;;;13.18;3.58;;;6.70;99.90;;;;;;5050347;28;20040;-78
2022/01/22 11:52:10;;;;;;;5.47;2.55;;;6.80;99.90;;;;;;5048884;28;20507;-78
2022/01/22 11:54:56;;;;;;;9.82;2.60;;;6.80;99.90;;;;;;5050998;28;20045;-77
2022/01/22 11:57:24;;;;;;;6.43;2.10;;;6.80;99.90;;;;;;5049822;28;20045;-77
2022/01/22 12:00:18;;;;;;;11.90;2.70;;;6.70;99.90;;;;;;5049868;28;20102;-77
2022/01/22 12:02:44;;;;;;;12.77;3.00;;;6.80;99.90;;;;;;5048568;28;20690;-78
2022/01/22 12:05:10;;;;;;;11.07;2.88;;;6.70;99.90;;;;;;5049513;28;20053;-79
2022/01/22 12:07:36;;;;;;;8.48;2.85;;;6.70;99.90;;;;;;5051200;28;20037;-79
2022/01/22 12:10:21;;;;;;;9.63;2.90;;;6.70;99.90;;;;;;5051166;28;20128;-79
2022/01/22 12:15:31;;;;;;;14.20;3.08;;;6.80;99.90;;;;;;5051929;28;20049;-78
2022/01/22 12:18:07;;;;;;;11.55;3.17;;;6.80;99.90;;;;;;5051275;28;20129;-79
2022/01/22 12:23:02;;;;;;;6.20;2.50;;;6.80;99.90;;;;;;5051172;28;20063;-79
2022/01/22 12:25:28;;;;;;;9.30;3.58;;;6.80;99.90;;;;;;5050835;28;20443;-80
2022/01/22 12:27:55;;;;;;;14.55;4.03;;;6.80;99.90;;;;;;5051311;28;20083;-79
2022/01/22 12:30:51;;;;;;;8.38;3.08;;;6.80;99.90;;;;;;5051298;28;20041;-79
2022/01/22 12:33:29;;;;;;;10.82;3.33;;;6.80;99.90;;;;;;5049811;28;20052;-80
2022/01/22 12:36:00;;;;;;;102.70;7.55;;;6.80;99.90;;;;;;5085234;28;20063;-80
2022/01/22 12:38:36;;;;;;;6.70;2.20;;;6.80;99.90;;;;;;5051400;28;20473;-80
2022/01/22 12:41:25;;;;;;;6.68;2.08;;;6.80;99.90;;;;;;5050433;28;20045;-79
2022/01/22 12:44:01;;;;;;;11.65;2.53;;;6.80;99.90;;;;;;5051580;28;20488;-80
2022/01/22 12:46:28;;;;;;;2.63;1.13;;;6.80;99.90;;;;;;5050472;28;20060;-79
2022/01/22 12:48:54;;;;;;;9.68;1.55;;;6.80;99.90;;;;;;5051236;28;20086;-78
2022/01/22 12:51:25;;;;;;;12.68;2.35;;;6.80;99.90;;;;;;5050824;28;20037;-77
2022/01/22 12:53:51;;;;;;;4.00;1.45;;;6.80;99.90;;;;;;5050923;28;20055;-79
2022/01/22 12:56:51;;;;;;;10.15;1.52;;;6.80;99.90;;;;;;5066906;28;20041;-79
2022/01/22 12:59:14;;;;;;;11.23;2.75;;;6.80;99.90;;;;;;5049561;28;20060;-78
2022/01/22 13:01:44;;;;;;;7.93;1.50;;;6.80;99.90;;;;;;5049746;28;20057;-79
2022/01/22 13:04:10;;;;;;;5.22;1.38;;;6.80;99.90;;;;;;5051023;28;20132;-78
2022/01/22 13:06:46;;;;;;;5.50;1.25;;;6.80;99.90;;;;;;5050497;28;20176;-79
2022/01/22 13:09:13;;;;;;;4.88;2.33;;;6.70;99.90;;;;;;5049345;28;20064;-78
2022/01/22 13:11:46;;;;;;;2.88;0.90;;;6.70;99.90;;;;;;5051641;28;20036;-78
2022/01/22 13:14:17;;;;;;;7.68;1.25;;;6.70;99.90;;;;;;5051155;28;20110;-79
2022/01/22 13:16:51;;;;;;;10.80;2.00;;;6.70;99.90;;;;;;5049886;28;20052;-79
2022/01/22 13:19:17;;;;;;;5.20;1.33;;;6.70;99.90;;;;;;5050983;28;20102;-78
2022/01/22 13:21:55;;;;;;;5.75;1.30;;;6.60;99.90;;;;;;5049346;28;20040;-79
2022/01/22 13:24:26;;;;;;;9.00;1.73;;;6.60;99.90;;;;;;5048541;28;20059;-78
2022/01/22 13:27:12;;;;;;;6.55;1.48;;;6.60;99.90;;;;;;5049733;28;20084;-79
2022/01/22 13:29:41;;;;;;;8.13;1.48;;;6.60;99.90;;;;;;5049022;28;20053;-78
2022/01/22 13:38:35;;;;;;;11.40;1.73;;;6.70;99.90;;;;;;5049483;28;20156;-78
2022/01/22 13:49:33;;;;;;;8.30;1.52;;;6.70;99.90;;;;;;5048937;28;20045;-78
2022/01/22 13:52:00;;;;;;;10.63;1.30;;;6.70;99.90;;;;;;5049204;28;20484;-79
2022/01/22 13:54:35;;;;;;;7.30;1.33;;;6.60;99.90;;;;;;5032002;28;20129;-78
2022/01/22 13:57:08;;;;;;;9.95;1.40;;;6.70;99.90;;;;;;5048349;28;20049;-78
2022/01/22 13:59:38;;;;;;;6.63;1.45;;;6.90;99.90;;;;;;5049125;28;20053;-78
2022/01/22 14:04:54;;;;;;;4.75;1.00;;;6.60;99.90;;;;;;5048119;28;20060;-78
2022/01/22 14:07:43;;;;;;;8.05;1.75;;;6.70;99.90;;;;;;5049780;28;20044;-79
2022/01/22 14:10:14;;;;;;;5.35;1.35;;;6.70;99.90;;;;;;5049698;28;20115;-77
2022/01/22 14:12:47;;;;;;;2.90;0.60;;;6.60;99.90;;;;;;5049812;28;20049;-78
2022/01/22 14:15:29;;;;;;;4.03;0.82;;;6.60;99.90;;;;;;5049029;28;20053;-79
2022/01/22 14:18:09;;;;;;;3.65;0.60;;;6.60;99.90;;;;;;5048421;28;20075;-79
2022/01/22 14:20:37;;;;;;;2.30;0.82;;;6.60;99.90;;;;;;5049483;28;20460;-79
2022/01/22 14:23:06;;;;;;;3.00;0.90;;;6.60;99.90;;;;;;5048854;28;20392;-80
2022/01/22 14:25:34;;;;;;;6.75;1.13;;;6.60;99.90;;;;;;5048452;28;20072;-80
2022/01/22 14:28:09;;;;;;;2.40;0.60;;;6.60;99.90;;;;;;5049140;28;20097;-79
2022/01/22 14:30:36;;;;;;;10.07;1.98;;;6.70;99.90;;;;;;5049376;28;20523;-78
2022/01/22 14:33:02;;;;;;;4.20;0.85;;;6.70;99.90;;;;;;5048285;28;20136;-79
2022/01/22 14:35:28;;;;;;;2.97;0.82;;;6.70;99.90;;;;;;5050404;28;20084;-79
2022/01/22 14:37:57;;;;;;;4.05;0.90;;;6.60;99.90;;;;;;5048830;28;20087;-79
2022/01/22 14:45:57;;;;;;;3.67;0.73;;;6.70;99.90;;;;;;5046107;28;20507;-79
2022/01/22 14:48:22;;;;;;;3.00;0.95;;;6.70;99.90;;;;;;5047265;28;20045;-82
2022/01/22 14:50:48;;;;;;;4.25;1.48;;;6.70;99.90;;;;;;5051351;28;20521;-82
2022/01/22 14:53:13;;;;;;;1.83;1.05;;;6.70;99.90;;;;;;5051726;28;20057;-80
2022/01/22 14:55:50;;;;;;;2.25;0.77;;;6.70;99.90;;;;;;5051960;28;20063;-82
2022/01/22 14:58:16;;;;;;;7.03;1.13;;;6.80;99.90;;;;;;5052374;28;20044;-86
2022/01/22 15:00:42;;;;;;;4.15;1.23;;;6.80;99.90;;;;;;5051809;28;20052;-85